Terminal Aerodrome Forecast
Issued by NWS

Current Version | Previous Version | Text Only | Print | Product List | Glossary On
Versions: 1 2 3 4 5 6 7 8 9 10 11 12 13 14 15 16 17 18
000
FTUS42 KFFC 291735
TAFFTY
TAF
KFTY 291735Z 2918/3018 07010KT P6SM SCT024 SCT070
     FM300100 12003KT P6SM OVC050
     FM300800 00000KT P6SM -SHRA OVC035
     FM301200 07005KT 6SM SHRA OVC018
     FM301400 07009KT 6SM SHRA OVC012=

USA.gov is the U.S. government's official web portal to all federal, state and local government web resources and services.